San Juan De La Maguana, Dominican Republic

10:52 AM AST on September 30, 2014 (GMT -0400)
EDESUR San Juan de la Maguana Centro | Change Station
CLOSE
Current Station
Personal Weather Station
Location: San Juan, SAN JUAN
Elevation: 1371 ft
Nearby Weather Stations

Elev 1371 ft 18.80 °N, 71.23 °W | Updated 1 minute ago

Partly Cloudy
Partly Cloudy
83.7 °F
Feels Like 85 °F
N
4.0
Wind Variable Wind from NNW
Gusts 12.0 mph

Today
High -- | Low -- °F
--% Chance of Precip.
Yesterday
High -- | Low -- °F
Precip. -- in
6:35 AM 6:34 PM
Waxing Crescent, 37% visible
Pressure 30.01 in
Visibility 6.2 miles
Clouds Few 1800 ft
Heat Index 85 °F
Dew Point 64 °F
Humidity 52%
Rainfall -999.00 in
Snow Depth Not available.
UV 9 out of 12
Pollen Not available.
Air Quality Not available.
Flu Activity Not available.
METAR MDBH 301400Z 11006KT 9999 FEW018 30/24 Q1016 NOSIG

More Conditions Fewer Conditions

Pressure 30.01 in
Visibility 6.2 miles
Clouds Few 1800 ft
Heat Index 85 °F
Dew Point 64 °F
Humidity 52%
Rainfall -999.00 in
Snow Depth Not available.
UV 9 out of 12
Pollen Not available.
Air Quality Not available.
Flu Activity Not available.
METAR MDBH 301400Z 11006KT 9999 FEW018 30/24 Q1016 NOSIG

More Conditions Fewer Conditions

10-Day Weather Forecast

Almanac

Astronomy

Sep. 30, 2014 Rise Set
Actual Time 6:35 AM AST 6:34 PM AST
Civil Twilight 6:13 AM AST 6:56 PM AST
Nautical Twilight 5:48 AM AST 7:21 PM AST
Astronomical Twilight 5:23 AM AST 7:46 PM AST
Moon 12:04 PM AST 11:37 PM AST
Length of Visible Light 12h 42m
Length of Day
11h 58m
Tomorrow will be 1m 3s shorter.
Waxing Crescent, 37% of the Moon is Illuminated
Today
Waxing Crescent
Oct 1
First Quarter
Oct 8
Full
Oct 15
Last Quarter
Oct 23
New

Today's Extremes

Country Highs Country Lows

Community

WunderPhotos

Upload Photos

1,757,641 photos uploaded!

WunderBlogs® & News

By Dr. Jeff Masters
Director of Meteorology, Weather Underground
By Kari Strenfel
Meteorologist, Weather Underground
By Christopher C. Burt
Weather Historian, Weather Underground
September 30, 2014
September 30, 2014
September 30, 2014

Nearby

Snow Depth

Not available.

Earthquake Activity

City Distance Mag. Time & Date
No recent earthquake activity has been reported nearby.
Minimum magnitude displayed is 2.5.

Coastal Water Temperatures

Place Temperature
No Stations Reporting

Nearby Weather Stations